Time;durP1;ratioP1;P1;durP2;ratioP2;P2;SDS_P1;SDS_P2;PMS_P1;PMS_P2;Temp;Humidity;BMP_temperature;BMP_pressure;BME280_temperature;BME280_humidity;BME280_pressure;Samples;Min_cycle;Max_cycle;Signal;HPM_P1;HPM_P2
2023/04/02 00:01:25;;;;;;;9.38;4.57;;;;;;;;;;4959285;28;20053;-72
2023/04/02 00:04:28;;;;;;;8.95;4.35;;;;;;;;;;4938096;28;20064;-73
2023/04/02 00:07:17;;;;;;;7.32;3.97;;;;;;;;;;4912263;28;20065;-70
2023/04/02 00:09:44;;;;;;;7.93;4.15;;;;;;;;;;4957381;28;20177;-72
2023/04/02 00:12:18;;;;;;;8.63;4.30;;;;;;;;;;4985301;28;20055;-74
2023/04/02 00:14:46;;;;;;;8.55;4.03;;;;;;;;;;5008493;28;20056;-73
2023/04/02 00:17:13;;;;;;;7.32;4.07;;;;;;;;;;4960037;28;20066;-70
2023/04/02 00:19:42;;;;;;;7.47;3.85;;;;;;;;;;4991217;28;20061;-72
2023/04/02 00:22:16;;;;;;;7.63;4.20;;;;;;;;;;4986051;28;20141;-69
2023/04/02 00:24:43;;;;;;;8.38;3.95;;;;;;;;;;4997765;28;20050;-69
2023/04/02 00:27:11;;;;;;;7.90;4.13;;;;;;;;;;4980418;28;20049;-72
2023/04/02 00:29:44;;;;;;;9.82;4.82;;;;;;;;;;4988554;28;20085;-73
2023/04/02 00:32:15;;;;;;;9.45;4.03;;;;;;;;;;4993094;28;20073;-72
2023/04/02 00:34:42;;;;;;;9.77;4.40;;;;;;;;;;4988220;28;20081;-72
2023/04/02 00:37:17;;;;;;;8.45;4.43;;;;;;;;;;4988677;28;20244;-71
2023/04/02 00:39:43;;;;;;;8.18;4.10;;;;;;;;;;4995021;28;20265;-70
2023/04/02 00:42:11;;;;;;;9.43;5.25;;;;;;;;;;4983548;28;20476;-70
2023/04/02 00:44:41;;;;;;;8.98;4.63;;;;;;;;;;4995588;28;20069;-71
2023/04/02 00:47:11;;;;;;;11.88;5.22;;;;;;;;;;4977787;28;20068;-70
2023/04/02 00:49:38;;;;;;;11.07;5.35;;;;;;;;;;4960146;28;20133;-71
2023/04/02 00:52:06;;;;;;;8.63;4.60;;;;;;;;;;4991251;28;20064;-71
2023/04/02 00:54:38;;;;;;;8.07;4.70;;;;;;;;;;4997606;28;20066;-72
2023/04/02 00:57:11;;;;;;;10.85;5.20;;;;;;;;;;4969466;28;20159;-71
2023/04/02 00:59:43;;;;;;;10.57;5.70;;;;;;;;;;4995236;28;20062;-72
2023/04/02 01:02:25;;;;;;;10.98;5.43;;;;;;;;;;4988072;28;20054;-73
2023/04/02 01:04:52;;;;;;;9.68;4.80;;;;;;;;;;4997378;28;20053;-71
2023/04/02 01:07:23;;;;;;;10.65;5.43;;;;;;;;;;4987356;28;20107;-71
2023/04/02 01:09:59;;;;;;;9.98;5.20;;;;;;;;;;5000845;28;20121;-72
2023/04/02 01:12:39;;;;;;;12.15;5.35;;;;;;;;;;4991297;28;20084;-69
2023/04/02 01:15:10;;;;;;;10.38;5.18;;;;;;;;;;4991641;28;20057;-71
2023/04/02 01:17:47;;;;;;;10.93;5.38;;;;;;;;;;4988834;28;20058;-69
2023/04/02 01:20:32;;;;;;;14.60;5.72;;;;;;;;;;4993347;28;20082;-74
2023/04/02 01:23:04;;;;;;;10.48;5.50;;;;;;;;;;4986290;28;20078;-71
2023/04/02 01:25:36;;;;;;;11.43;5.10;;;;;;;;;;4992464;28;20066;-71
2023/04/02 01:28:06;;;;;;;10.15;5.40;;;;;;;;;;4990962;28;20124;-72
2023/04/02 01:30:35;;;;;;;10.60;5.88;;;;;;;;;;4975832;28;20054;-70
2023/04/02 01:33:02;;;;;;;11.45;5.72;;;;;;;;;;4972498;28;20058;-71
2023/04/02 01:35:31;;;;;;;11.55;5.72;;;;;;;;;;4990047;28;20366;-70
2023/04/02 01:38:03;;;;;;;10.75;5.63;;;;;;;;;;4995890;28;20065;-72
2023/04/02 01:40:33;;;;;;;10.95;5.20;;;;;;;;;;4961895;28;20112;-71
2023/04/02 01:43:05;;;;;;;10.80;5.60;;;;;;;;;;4973044;28;20062;-71
2023/04/02 01:45:33;;;;;;;11.73;5.43;;;;;;;;;;4990487;28;20069;-70
2023/04/02 01:48:01;;;;;;;10.15;5.60;;;;;;;;;;4996760;28;20056;-73
2023/04/02 01:50:31;;;;;;;13.18;6.00;;;;;;;;;;4981703;28;20081;-74
2023/04/02 01:52:59;;;;;;;11.25;5.28;;;;;;;;;;4992695;28;20066;-69
2023/04/02 01:55:26;;;;;;;;;;;;;;;;;;4988139;28;20061;-71
2023/04/02 01:57:53;;;;;;;12.23;5.13;;;;;;;;;;4988279;28;19925;-72
2023/04/02 02:00:21;;;;;;;9.85;5.53;;;;;;;;;;4986796;28;20143;-72
2023/04/02 02:02:49;;;;;;;11.83;5.87;;;;;;;;;;4991860;28;20078;-71
2023/04/02 02:05:18;;;;;;;11.60;5.18;;;;;;;;;;4949367;28;20068;-72
2023/04/02 02:07:45;;;;;;;11.27;5.65;;;;;;;;;;4969102;28;20085;-74
2023/04/02 02:10:14;;;;;;;13.20;5.75;;;;;;;;;;5013496;28;20141;-71
2023/04/02 02:12:41;;;;;;;11.80;5.65;;;;;;;;;;4989496;28;20197;-69
2023/04/02 02:15:12;;;;;;;12.23;6.03;;;;;;;;;;4988170;28;20110;-72
2023/04/02 02:17:39;;;;;;;11.50;6.53;;;;;;;;;;4994834;28;20089;-71
2023/04/02 02:20:09;;;;;;;10.13;5.63;;;;;;;;;;4988396;28;20065;-71
2023/04/02 02:22:38;;;;;;;10.35;5.45;;;;;;;;;;4970452;28;20066;-69
2023/04/02 02:25:04;;;;;;;;;;;;;;;;;;4981129;28;20064;-71
2023/04/02 02:27:42;;;;;;;9.80;4.68;;;;;;;;;;4995499;28;19925;-69
2023/04/02 02:35:18;;;;;;;12.68;5.57;;;;;;;;;;4963391;28;20046;-73
2023/04/02 02:37:50;;;;;;;13.02;5.90;;;;;;;;;;4996425;28;20057;-73
2023/04/02 02:40:22;;;;;;;10.38;5.45;;;;;;;;;;4977406;28;20121;-74
2023/04/02 02:42:51;;;;;;;12.13;5.13;;;;;;;;;;4966768;28;20085;-74
2023/04/02 02:45:17;;;;;;;;;;;;;;;;;;4978470;28;20062;-75
2023/04/02 02:47:45;;;;;;;9.93;4.72;;;;;;;;;;4953339;28;19925;-75
2023/04/02 02:50:14;;;;;;;11.93;5.90;;;;;;;;;;4976964;28;20054;-76
2023/04/02 02:52:45;;;;;;;12.65;5.60;;;;;;;;;;4964456;28;20062;-74
2023/04/02 02:55:15;;;;;;;12.20;5.57;;;;;;;;;;4991313;28;20448;-75
2023/04/02 02:57:44;;;;;;;13.77;6.10;;;;;;;;;;4978527;28;20058;-76
2023/04/02 03:00:11;;;;;;;11.55;4.93;;;;;;;;;;4989817;28;20062;-76
2023/04/02 03:02:40;;;;;;;10.32;5.30;;;;;;;;;;4971679;28;20078;-74
2023/04/02 03:05:08;;;;;;;11.52;5.35;;;;;;;;;;4967763;28;20157;-74
2023/04/02 03:07:36;;;;;;;12.85;4.85;;;;;;;;;;4977043;28;20054;-74
2023/04/02 03:10:05;;;;;;;9.98;4.80;;;;;;;;;;4971827;28;20049;-75
2023/04/02 03:12:38;;;;;;;12.68;5.30;;;;;;;;;;4970694;28;20086;-75
2023/04/02 03:15:11;;;;;;;12.73;5.45;;;;;;;;;;4962593;28;20073;-75
2023/04/02 03:17:41;;;;;;;9.80;5.28;;;;;;;;;;4974920;28;20054;-75
2023/04/02 03:20:13;;;;;;;9.73;4.85;;;;;;;;;;4977804;28;20065;-73
2023/04/02 03:22:42;;;;;;;9.43;5.38;;;;;;;;;;4965966;28;20058;-73
2023/04/02 03:25:17;;;;;;;11.02;5.28;;;;;;;;;;4958432;28;20057;-75
2023/04/02 03:27:47;;;;;;;10.43;5.50;;;;;;;;;;4972966;28;20054;-74
2023/04/02 03:30:22;;;;;;;11.13;4.95;;;;;;;;;;4982520;28;20058;-75
2023/04/02 03:32:51;;;;;;;8.82;4.65;;;;;;;;;;4963754;28;20093;-72
2023/04/02 03:35:20;;;;;;;12.73;5.15;;;;;;;;;;4953220;28;20059;-75
2023/04/02 03:37:49;;;;;;;9.80;4.93;;;;;;;;;;4975931;28;20063;-73
2023/04/02 03:40:17;;;;;;;11.50;5.32;;;;;;;;;;4969580;28;20059;-72
2023/04/02 03:42:49;;;;;;;8.32;4.35;;;;;;;;;;4939801;28;20054;-72
2023/04/02 03:45:19;;;;;;;10.55;5.10;;;;;;;;;;4949228;28;20059;-72
2023/04/02 03:47:49;;;;;;;9.35;5.22;;;;;;;;;;4975134;28;20051;-75
2023/04/02 03:50:18;;;;;;;11.95;5.18;;;;;;;;;;4971083;28;20050;-73
2023/04/02 03:52:45;;;;;;;9.88;4.72;;;;;;;;;;4968558;28;20154;-75
2023/04/02 03:55:15;;;;;;;11.32;5.22;;;;;;;;;;4951400;28;20073;-75
2023/04/02 03:57:46;;;;;;;10.35;5.18;;;;;;;;;;4940154;28;20061;-73
2023/04/02 04:00:17;;;;;;;9.13;5.15;;;;;;;;;;4947751;28;20046;-75
2023/04/02 04:02:46;;;;;;;9.23;4.88;;;;;;;;;;4967825;28;20055;-72
2023/04/02 04:05:22;;;;;;;12.57;5.43;;;;;;;;;;4974346;28;20051;-75
2023/04/02 04:07:51;;;;;;;10.75;4.97;;;;;;;;;;4937512;28;20063;-73
2023/04/02 04:10:21;;;;;;;11.55;5.38;;;;;;;;;;4954532;28;20071;-73
2023/04/02 04:12:49;;;;;;;9.70;4.90;;;;;;;;;;4943895;28;20137;-72
2023/04/02 04:15:21;;;;;;;11.10;5.28;;;;;;;;;;4953178;28;20055;-73
2023/04/02 04:17:52;;;;;;;11.68;5.28;;;;;;;;;;4951971;28;20059;-73
2023/04/02 04:20:21;;;;;;;10.02;5.10;;;;;;;;;;4938832;28;20082;-72
2023/04/02 04:22:48;;;;;;;9.57;4.88;;;;;;;;;;4945817;28;20087;-75
2023/04/02 04:25:21;;;;;;;10.60;5.32;;;;;;;;;;4936973;28;20047;-75
2023/04/02 04:27:54;;;;;;;11.63;5.32;;;;;;;;;;4952257;28;20062;-73
2023/04/02 04:30:26;;;;;;;8.98;5.15;;;;;;;;;;4975892;28;20578;-74
2023/04/02 04:32:56;;;;;;;9.02;4.80;;;;;;;;;;4955257;28;20122;-75
2023/04/02 04:35:26;;;;;;;11.35;5.18;;;;;;;;;;4988677;28;20054;-73
2023/04/02 04:37:57;;;;;;;10.27;5.18;;;;;;;;;;4989945;28;20056;-73
2023/04/02 04:40:26;;;;;;;10.52;4.50;;;;;;;;;;4991772;28;20101;-74
2023/04/02 04:42:54;;;;;;;9.10;4.85;;;;;;;;;;4980661;28;20077;-74
2023/04/02 04:45:34;;;;;;;9.80;5.03;;;;;;;;;;4988570;28;20051;-75
2023/04/02 04:48:02;;;;;;;12.10;5.38;;;;;;;;;;4979762;28;20058;-75
2023/04/02 04:50:32;;;;;;;14.27;5.28;;;;;;;;;;4989018;28;20062;-74
2023/04/02 04:53:05;;;;;;;9.82;4.75;;;;;;;;;;4982508;28;20145;-73
2023/04/02 04:55:36;;;;;;;12.57;5.35;;;;;;;;;;4974689;28;20062;-75
2023/04/02 04:58:04;;;;;;;10.98;5.25;;;;;;;;;;5000982;28;20054;-73
2023/04/02 05:00:42;;;;;;;9.38;4.70;;;;;;;;;;4992968;28;20050;-72
2023/04/02 05:03:15;;;;;;;11.68;4.82;;;;;;;;;;4988502;28;20054;-76
2023/04/02 05:05:42;;;;;;;9.52;4.65;;;;;;;;;;4987997;28;20123;-72
2023/04/02 05:08:14;;;;;;;10.20;4.85;;;;;;;;;;4988983;28;20054;-73
2023/04/02 05:10:44;;;;;;;11.48;4.50;;;;;;;;;;4986328;28;20058;-74
2023/04/02 05:13:14;;;;;;;11.38;4.53;;;;;;;;;;4990339;28;20058;-74
2023/04/02 05:15:45;;;;;;;8.88;4.20;;;;;;;;;;4989722;28;20112;-74
2023/04/02 05:18:17;;;;;;;10.23;4.45;;;;;;;;;;4977615;28;20073;-74
2023/04/02 05:20:48;;;;;;;10.27;4.47;;;;;;;;;;4974009;28;20050;-74
2023/04/02 05:23:17;;;;;;;8.38;3.92;;;;;;;;;;4992996;28;20156;-74
2023/04/02 05:25:51;;;;;;;10.32;4.40;;;;;;;;;;4989397;28;20124;-75
2023/04/02 05:28:22;;;;;;;8.13;3.85;;;;;;;;;;4995440;28;20066;-73
2023/04/02 05:30:53;;;;;;;8.73;3.67;;;;;;;;;;4983669;28;20214;-74
2023/04/02 05:33:22;;;;;;;8.38;3.70;;;;;;;;;;4993265;28;20062;-73
2023/04/02 05:35:53;;;;;;;11.18;3.58;;;;;;;;;;4967425;28;20064;-76
2023/04/02 05:38:23;;;;;;;10.70;3.88;;;;;;;;;;4992922;28;20053;-75
2023/04/02 05:40:54;;;;;;;9.52;3.90;;;;;;;;;;4977873;28;20064;-75
2023/04/02 05:43:23;;;;;;;6.93;3.10;;;;;;;;;;4994737;28;20050;-75
2023/04/02 05:45:54;;;;;;;7.88;3.30;;;;;;;;;;4973667;28;20116;-73
2023/04/02 05:48:26;;;;;;;7.05;2.90;;;;;;;;;;4993830;28;20062;-74
2023/04/02 05:50:55;;;;;;;7.10;3.10;;;;;;;;;;4989269;28;20062;-74
2023/04/02 05:53:24;;;;;;;6.50;2.90;;;;;;;;;;4977609;28;20121;-74
2023/04/02 05:55:54;;;;;;;7.15;2.80;;;;;;;;;;4932741;28;20050;-74
2023/04/02 05:58:24;;;;;;;6.25;2.50;;;;;;;;;;4980272;28;20149;-72
2023/04/02 06:01:01;;;;;;;6.38;2.97;;;;;;;;;;4957857;28;20059;-73
2023/04/02 06:03:31;;;;;;;5.97;2.45;;;;;;;;;;4979088;28;20068;-75
2023/04/02 06:06:03;;;;;;;5.13;2.22;;;;;;;;;;4972885;28;20417;-74
2023/04/02 06:08:34;;;;;;;4.85;2.40;;;;;;;;;;4982816;28;20311;-74
2023/04/02 06:11:04;;;;;;;9.00;2.28;;;;;;;;;;4972986;28;20050;-74
2023/04/02 06:13:31;;;;;;;6.05;2.10;;;;;;;;;;4974935;28;20074;-73
2023/04/02 06:15:59;;;;;;;5.20;2.28;;;;;;;;;;4975817;28;20050;-75
2023/04/02 06:18:30;;;;;;;5.75;2.38;;;;;;;;;;4949838;28;20054;-72
2023/04/02 06:20:57;;;;;;;6.70;2.00;;;;;;;;;;4954174;28;20065;-75
2023/04/02 06:23:29;;;;;;;6.53;2.22;;;;;;;;;;4992513;28;20058;-73
2023/04/02 06:25:59;;;;;;;6.28;1.98;;;;;;;;;;4970156;28;20122;-73
2023/04/02 06:28:27;;;;;;;4.47;2.15;;;;;;;;;;4961739;28;20058;-75
2023/04/02 06:30:58;;;;;;;5.65;2.13;;;;;;;;;;4990990;28;20054;-74
2023/04/02 06:33:26;;;;;;;4.85;1.80;;;;;;;;;;4987656;28;20054;-74
2023/04/02 06:35:54;;;;;;;4.28;1.75;;;;;;;;;;4993010;28;20058;-76
2023/04/02 06:38:25;;;;;;;3.72;1.88;;;;;;;;;;4976356;28;20058;-76
2023/04/02 06:40:53;;;;;;;2.45;1.52;;;;;;;;;;4972391;28;20081;-74
2023/04/02 06:43:26;;;;;;;5.13;1.85;;;;;;;;;;4984216;28;20064;-73
2023/04/02 06:45:55;;;;;;;3.67;1.75;;;;;;;;;;4980287;28;20058;-74
2023/04/02 06:48:28;;;;;;;3.72;1.55;;;;;;;;;;4992803;28;20069;-73
2023/04/02 06:50:59;;;;;;;3.00;1.50;;;;;;;;;;4998077;28;20116;-74
2023/04/02 06:53:32;;;;;;;3.42;1.73;;;;;;;;;;4985492;28;20064;-75
2023/04/02 06:56:02;;;;;;;4.70;1.67;;;;;;;;;;4959856;28;20061;-74
2023/04/02 06:58:32;;;;;;;6.88;1.58;;;;;;;;;;4975785;28;20066;-74
2023/04/02 07:00:59;;;;;;;4.55;1.67;;;;;;;;;;4990882;28;20054;-74
2023/04/02 07:03:27;;;;;;;6.18;1.75;;;;;;;;;;4982561;28;20062;-74
2023/04/02 07:05:54;;;;;;;6.40;1.55;;;;;;;;;;4978735;28;20078;-74
2023/04/02 07:08:24;;;;;;;4.68;1.48;;;;;;;;;;4972174;28;20129;-75
2023/04/02 07:10:52;;;;;;;3.42;1.80;;;;;;;;;;4972148;28;21021;-73
2023/04/02 07:13:20;;;;;;;4.68;1.55;;;;;;;;;;4969857;28;20063;-73
2023/04/02 07:15:56;;;;;;;7.10;1.80;;;;;;;;;;4987896;28;20066;-73
2023/04/02 07:18:28;;;;;;;5.28;1.90;;;;;;;;;;4965636;28;20050;-75
2023/04/02 07:20:55;;;;;;;2.78;1.30;;;;;;;;;;4989486;28;20244;-74
2023/04/02 07:23:24;;;;;;;4.35;1.70;;;;;;;;;;4975553;28;20214;-73
2023/04/02 07:25:52;;;;;;;;;;;;;;;;;;4981177;28;20060;-73
2023/04/02 07:28:20;;;;;;;4.18;1.40;;;;;;;;;;4955568;28;19929;-74
2023/04/02 07:30:50;;;;;;;5.40;1.90;;;;;;;;;;4965896;28;20259;-76
2023/04/02 07:33:19;;;;;;;4.15;1.55;;;;;;;;;;4996449;28;20054;-74
2023/04/02 07:35:46;;;;;;;3.45;1.38;;;;;;;;;;4954829;28;20054;-75
2023/04/02 07:38:12;;;;;;;5.57;1.80;;;;;;;;;;4985342;28;20141;-75
2023/04/02 07:40:43;;;;;;;3.53;1.40;;;;;;;;;;4965705;28;20062;-74
2023/04/02 07:43:10;;;;;;;6.35;1.77;;;;;;;;;;4985061;28;20054;-73
2023/04/02 07:45:37;;;;;;;3.55;1.60;;;;;;;;;;4961082;28;20053;-76
2023/04/02 07:48:05;;;;;;;4.60;1.65;;;;;;;;;;4987911;28;20148;-75
2023/04/02 07:50:35;;;;;;;6.43;1.55;;;;;;;;;;4972473;28;20141;-74
2023/04/02 07:53:02;;;;;;;5.07;1.70;;;;;;;;;;5000169;28;20058;-74
2023/04/02 07:55:28;;;;;;;4.32;1.65;;;;;;;;;;4962996;28;20041;-75
2023/04/02 07:58:00;;;;;;;5.55;1.67;;;;;;;;;;4988895;28;20062;-73
2023/04/02 08:00:33;;;;;;;3.30;1.50;;;;;;;;;;4976086;28;20043;-73
2023/04/02 08:03:02;;;;;;;4.82;1.60;;;;;;;;;;4973878;28;20054;-73
2023/04/02 08:05:29;;;;;;;3.78;1.60;;;;;;;;;;4963854;28;20449;-75
2023/04/02 08:07:56;;;;;;;3.17;1.55;;;;;;;;;;4995625;28;20057;-75
2023/04/02 08:10:24;;;;;;;3.65;1.63;;;;;;;;;;4976632;28;20053;-76
2023/04/02 08:12:53;;;;;;;4.57;1.75;;;;;;;;;;4979061;28;20066;-75
2023/04/02 08:15:22;;;;;;;4.53;1.73;;;;;;;;;;4957365;28;20081;-75
2023/04/02 08:17:50;;;;;;;6.88;1.63;;;;;;;;;;4981288;28;20086;-76
2023/04/02 08:20:18;;;;;;;4.50;1.45;;;;;;;;;;4984092;28;20054;-76
2023/04/02 08:23:01;;;;;;;7.25;2.10;;;;;;;;;;4981660;28;20357;-77
2023/04/02 08:25:29;;;;;;;5.55;1.95;;;;;;;;;;4935067;28;20137;-76
2023/04/02 08:27:56;;;;;;;7.50;1.87;;;;;;;;;;4967669;28;20047;-76
2023/04/02 08:30:30;;;;;;;4.82;1.67;;;;;;;;;;4970055;28;20073;-74
2023/04/02 08:32:59;;;;;;;6.45;2.13;;;;;;;;;;4978993;28;20069;-75
2023/04/02 08:35:26;;;;;;;4.57;1.85;;;;;;;;;;4971459;28;20185;-75
2023/04/02 08:37:55;;;;;;;4.53;1.42;;;;;;;;;;4973613;28;20179;-77
2023/04/02 08:40:26;;;;;;;8.90;2.00;;;;;;;;;;4974914;28;20051;-75
2023/04/02 08:43:02;;;;;;;5.10;1.90;;;;;;;;;;4932290;28;20102;-74
2023/04/02 08:45:39;;;;;;;3.67;1.90;;;;;;;;;;4906926;28;20050;-76
2023/04/02 08:48:08;;;;;;;5.25;1.60;;;;;;;;;;4958438;28;20058;-73
2023/04/02 08:50:36;;;;;;;5.53;2.30;;;;;;;;;;4918208;28;20096;-73
2023/04/02 08:53:04;;;;;;;2.80;1.45;;;;;;;;;;4919367;28;20060;-74
2023/04/02 08:55:31;;;;;;;;;;;;;;;;;;4835868;29;20060;-74
2023/04/02 08:58:01;;;;;;;3.22;1.33;;;;;;;;;;4835761;29;20010;-75
2023/04/02 09:08:05;;;;;;;4.82;1.70;;;;;;;;;;5025690;27;20520;-73
2023/04/02 09:10:37;;;;;;;7.13;2.03;;;;;;;;;;4964536;28;20078;-71
2023/04/02 09:13:28;;;;;;;6.10;1.80;;;;;;;;;;4963094;28;20054;-71
2023/04/02 09:16:03;;;;;;;5.03;1.58;;;;;;;;;;4883808;28;20062;-72
2023/04/02 09:18:33;;;;;;;3.80;1.50;;;;;;;;;;4939518;28;20055;-69
2023/04/02 09:24:03;;;;;;;;;;;;;;;;;;4875991;28;20339;-69
2023/04/02 09:40:27;;;;;;;;;;;;;;;;;;4906870;27;2312029;-76
2023/04/02 09:43:11;;;;;;;4.60;1.77;;;;;;;;;;4962680;28;19933;-69
2023/04/02 09:45:42;;;;;;;7.88;1.60;;;;;;;;;;4936454;28;20073;-67
2023/04/02 09:48:26;;;;;;;4.32;1.50;;;;;;;;;;4944033;28;20068;-74
2023/04/02 09:51:05;;;;;;;3.33;1.20;;;;;;;;;;4996706;28;20065;-69
2023/04/02 09:53:39;;;;;;;5.45;1.55;;;;;;;;;;4982407;28;20529;-70
2023/04/02 09:56:12;;;;;;;5.63;1.45;;;;;;;;;;4899510;28;20073;-73
2023/04/02 09:58:40;;;;;;;2.88;1.48;;;;;;;;;;4928237;28;20089;-75
2023/04/02 10:01:26;;;;;;;3.13;1.40;;;;;;;;;;4920803;28;20055;-72
2023/04/02 10:04:02;;;;;;;3.75;1.50;;;;;;;;;;4948403;28;20054;-71
2023/04/02 10:19:07;;;;;;;2.10;1.05;;;;;;;;;;4850072;29;20061;-71
2023/04/02 10:21:36;;;;;;;5.88;1.40;;;;;;;;;;4897246;29;20055;-69
2023/04/02 10:24:09;;;;;;;4.72;1.33;;;;;;;;;;4942633;28;20059;-71
2023/04/02 10:26:42;;;;;;;5.03;1.58;;;;;;;;;;4908473;28;20059;-69
2023/04/02 10:29:26;;;;;;;2.83;1.30;;;;;;;;;;4944186;28;20043;-72
2023/04/02 10:31:55;;;;;;;4.32;1.25;;;;;;;;;;4997609;28;20062;-70
2023/04/02 10:34:33;;;;;;;3.60;1.13;;;;;;;;;;4981559;28;20066;-71
2023/04/02 10:37:03;;;;;;;7.43;1.20;;;;;;;;;;4973634;28;20054;-71
2023/04/02 10:39:33;;;;;;;3.90;1.23;;;;;;;;;;4981568;28;20054;-70
2023/04/02 10:42:04;;;;;;;5.25;1.38;;;;;;;;;;4988223;28;20061;-73
2023/04/02 10:44:40;;;;;;;2.55;1.23;;;;;;;;;;4992590;28;20068;-68
2023/04/02 10:47:17;;;;;;;3.08;1.17;;;;;;;;;;4988867;28;20100;-73
2023/04/02 10:49:48;;;;;;;4.18;1.42;;;;;;;;;;4996208;28;20065;-71
2023/04/02 10:52:20;;;;;;;6.07;1.50;;;;;;;;;;4959885;28;20050;-66
2023/04/02 10:54:48;;;;;;;2.13;1.30;;;;;;;;;;4977576;28;20062;-70
2023/04/02 10:57:26;;;;;;;2.85;1.30;;;;;;;;;;4967095;28;20148;-68
2023/04/02 11:00:00;;;;;;;2.88;1.35;;;;;;;;;;4974239;28;20223;-72
2023/04/02 11:02:33;;;;;;;4.70;1.30;;;;;;;;;;4961402;28;20050;-69
2023/04/02 11:05:07;;;;;;;3.75;1.50;;;;;;;;;;4998805;28;20154;-72
2023/04/02 11:07:49;;;;;;;7.15;1.50;;;;;;;;;;4966608;28;20058;-72
2023/04/02 11:10:29;;;;;;;4.05;1.38;;;;;;;;;;4907515;28;20054;-67
2023/04/02 11:13:00;;;;;;;2.85;1.38;;;;;;;;;;4963449;28;20053;-71
2023/04/02 11:15:41;;;;;;;4.30;1.38;;;;;;;;;;4924246;28;20064;-70
2023/04/02 11:18:34;;;;;;;8.18;2.10;;;;;;;;;;4867463;28;20060;-71
2023/04/02 11:24:05;;;;;;;3.47;1.50;;;;;;;;;;4859483;29;20079;-72
2023/04/02 11:26:52;;;;;;;6.38;1.88;;;;;;;;;;4855023;29;20056;-68
2023/04/02 11:29:29;;;;;;;5.40;1.60;;;;;;;;;;4908097;28;20090;-70
2023/04/02 11:32:30;;;;;;;6.18;1.48;;;;;;;;;;4918387;29;20063;-70
2023/04/02 11:35:03;;;;;;;3.30;1.35;;;;;;;;;;4874005;29;20208;-72
2023/04/02 11:37:43;;;;;;;5.40;1.67;;;;;;;;;;4877408;29;20453;-68
2023/04/02 11:40:28;;;;;;;4.38;1.60;;;;;;;;;;4899276;29;20056;-69
2023/04/02 11:42:57;;;;;;;4.85;1.60;;;;;;;;;;4895549;29;20063;-68
2023/04/02 11:45:44;;;;;;;5.80;2.03;;;;;;;;;;4861493;29;20052;-69
2023/04/02 11:48:32;;;;;;;4.15;1.58;;;;;;;;;;4885802;29;20060;-69
2023/04/02 11:51:03;;;;;;;3.10;1.63;;;;;;;;;;4880486;29;20191;-72
2023/04/02 11:53:34;;;;;;;9.20;1.67;;;;;;;;;;4882764;29;20163;-69
2023/04/02 11:56:24;;;;;;;6.63;1.55;;;;;;;;;;4794998;29;20145;-73
2023/04/02 11:58:57;;;;;;;3.83;1.60;;;;;;;;;;4785701;29;20061;-67
2023/04/02 12:01:44;;;;;;;3.13;1.50;;;;;;;;;;4845223;29;20061;-69
2023/04/02 12:04:34;;;;;;;2.15;1.25;;;;;;;;;;4813537;29;20346;-70
2023/04/02 12:07:16;;;;;;;5.28;1.92;;;;;;;;;;4912908;28;20165;-68
2023/04/02 12:12:59;;;;;;;4.70;1.50;;;;;;;;;;4952563;28;20140;-69
2023/04/02 12:15:35;;;;;;;3.55;1.40;;;;;;;;;;4919702;28;20055;-67
2023/04/02 12:18:12;;;;;;;4.00;1.35;;;;;;;;;;4864030;28;20091;-68
2023/04/02 12:20:46;;;;;;;4.95;1.60;;;;;;;;;;4935116;28;20376;-67
2023/04/02 12:23:19;;;;;;;3.60;1.42;;;;;;;;;;4953537;28;20104;-67
2023/04/02 12:26:00;;;;;;;3.38;1.30;;;;;;;;;;4937754;28;20051;-72
2023/04/02 12:28:30;;;;;;;;;;;;;;;;;;4880715;28;20057;-70
2023/04/02 12:31:06;;;;;;;3.95;1.45;;;;;;;;;;4963264;28;19925;-69
2023/04/02 12:33:36;;;;;;;5.53;1.55;;;;;;;;;;4955187;28;20050;-66
2023/04/02 12:36:17;;;;;;;3.95;1.80;;;;;;;;;;4945730;28;20065;-73
2023/04/02 12:38:46;;;;;;;4.43;1.40;;;;;;;;;;4917538;28;20063;-70
2023/04/02 12:41:22;;;;;;;4.30;1.52;;;;;;;;;;4968570;28;20053;-71
2023/04/02 12:43:58;;;;;;;2.70;1.35;;;;;;;;;;4975969;28;20060;-67
2023/04/02 12:46:27;;;;;;;5.40;1.70;;;;;;;;;;4954096;28;20094;-69
2023/04/02 12:48:54;;;;;;;7.90;1.60;;;;;;;;;;4981526;28;20049;-69
2023/04/02 12:51:21;;;;;;;5.32;1.48;;;;;;;;;;4992631;28;20054;-65
2023/04/02 12:53:51;;;;;;;3.40;1.40;;;;;;;;;;4981260;28;20172;-70
2023/04/02 12:56:21;;;;;;;4.25;1.33;;;;;;;;;;4983347;28;20116;-71
2023/04/02 12:58:52;;;;;;;3.60;1.33;;;;;;;;;;4942835;28;20173;-71
2023/04/02 13:01:22;;;;;;;4.55;1.30;;;;;;;;;;4969078;28;20054;-72
2023/04/02 13:04:05;;;;;;;5.75;1.60;;;;;;;;;;4982983;28;20073;-75
2023/04/02 13:06:34;;;;;;;8.23;1.90;;;;;;;;;;4972672;28;20084;-67
2023/04/02 13:09:03;;;;;;;3.70;1.50;;;;;;;;;;4970202;28;20060;-69
2023/04/02 13:11:34;;;;;;;4.75;1.38;;;;;;;;;;4983639;28;20112;-70
2023/04/02 13:14:01;;;;;;;4.28;1.30;;;;;;;;;;4995501;28;20062;-75
2023/04/02 13:16:40;;;;;;;3.80;1.48;;;;;;;;;;4965146;28;20195;-75
2023/04/02 13:19:21;;;;;;;3.60;1.40;;;;;;;;;;4980882;28;20139;-70
2023/04/02 13:21:48;;;;;;;4.85;1.27;;;;;;;;;;4978656;28;20157;-76
2023/04/02 13:27:03;;;;;;;5.70;1.55;;;;;;;;;;4975111;28;20050;-77
2023/04/02 13:29:31;;;;;;;5.30;1.30;;;;;;;;;;4970291;28;20116;-76
2023/04/02 13:31:59;;;;;;;2.05;1.15;;;;;;;;;;4968063;28;20057;-70
2023/04/02 13:34:28;;;;;;;3.85;1.30;;;;;;;;;;4953836;28;20155;-70
2023/04/02 13:36:56;;;;;;;3.42;1.17;;;;;;;;;;4983060;28;20217;-70
2023/04/02 13:39:24;;;;;;;3.30;1.27;;;;;;;;;;4968587;28;20046;-70
2023/04/02 13:41:51;;;;;;;;;;;;;;;;;;4997541;28;20144;-70
2023/04/02 13:44:19;;;;;;;3.00;1.15;;;;;;;;;;4952256;28;19926;-69
2023/04/02 13:46:46;;;;;;;3.40;1.10;;;;;;;;;;4963486;28;20069;-69
2023/04/02 13:49:13;;;;;;;4.28;1.27;;;;;;;;;;4969963;28;20066;-70
2023/04/02 13:51:44;;;;;;;2.25;1.10;;;;;;;;;;4999396;28;20062;-70
2023/04/02 13:54:14;;;;;;;4.10;1.27;;;;;;;;;;4985781;28;20054;-71
2023/04/02 13:56:42;;;;;;;3.05;1.33;;;;;;;;;;4981673;28;20061;-67
2023/04/02 13:59:12;;;;;;;2.83;1.13;;;;;;;;;;4995476;28;20160;-68
2023/04/02 14:01:41;;;;;;;3.03;1.00;;;;;;;;;;4999731;28;20054;-69
2023/04/02 14:04:08;;;;;;;5.57;1.30;;;;;;;;;;4994296;28;20053;-67
2023/04/02 14:06:43;;;;;;;4.75;1.40;;;;;;;;;;4951956;28;20128;-68
2023/04/02 14:09:13;;;;;;;3.10;1.38;;;;;;;;;;4966879;28;20064;-69
2023/04/02 14:11:44;;;;;;;2.83;1.20;;;;;;;;;;4980761;28;20081;-69
2023/04/02 14:14:30;;;;;;;3.60;1.25;;;;;;;;;;4995537;28;20114;-69
2023/04/02 14:17:04;;;;;;;3.83;1.20;;;;;;;;;;4981811;28;20077;-68
2023/04/02 14:19:37;;;;;;;4.97;1.30;;;;;;;;;;4969911;28;20112;-71
2023/04/02 14:22:09;;;;;;;1.92;0.98;;;;;;;;;;4975353;28;20060;-68
2023/04/02 14:24:40;;;;;;;2.58;1.08;;;;;;;;;;4989306;28;20081;-70
2023/04/02 14:27:24;;;;;;;2.30;1.00;;;;;;;;;;4965338;28;20113;-71
2023/04/02 14:29:56;;;;;;;3.92;1.25;;;;;;;;;;4984880;28;20201;-67
2023/04/02 14:32:28;;;;;;;3.17;1.17;;;;;;;;;;4991084;28;20130;-69
2023/04/02 14:35:01;;;;;;;1.83;0.85;;;;;;;;;;4988625;28;20050;-72
2023/04/02 14:37:32;;;;;;;5.60;1.25;;;;;;;;;;4997680;28;20077;-71
2023/04/02 14:40:07;;;;;;;4.35;1.08;;;;;;;;;;4993490;28;20255;-68
2023/04/02 14:42:40;;;;;;;1.38;1.10;;;;;;;;;;4977761;28;20264;-68
2023/04/02 14:45:11;;;;;;;3.95;1.10;;;;;;;;;;5002112;28;20069;-70
2023/04/02 14:47:41;;;;;;;2.65;1.38;;;;;;;;;;4960242;28;20168;-71
2023/04/02 14:50:12;;;;;;;2.72;1.10;;;;;;;;;;5001497;28;20046;-71
2023/04/02 14:52:46;;;;;;;2.72;1.13;;;;;;;;;;4984784;28;20062;-67
2023/04/02 14:55:14;;;;;;;6.10;1.30;;;;;;;;;;4937689;28;20054;-70
2023/04/02 14:57:41;;;;;;;;;;;;;;;;;;4933793;28;20068;-71
2023/04/02 15:00:23;;;;;;;3.70;1.00;;;;;;;;;;4996053;28;20229;-68
2023/04/02 15:02:54;;;;;;;2.70;1.20;;;;;;;;;;4991559;28;20121;-70
2023/04/02 15:05:22;;;;;;;2.67;1.05;;;;;;;;;;5008125;28;20049;-70
2023/04/02 15:07:52;;;;;;;2.35;1.00;;;;;;;;;;4971450;28;20152;-71
2023/04/02 15:10:23;;;;;;;5.75;1.33;;;;;;;;;;4968264;28;20050;-70
2023/04/02 15:12:51;;;;;;;3.33;1.20;;;;;;;;;;4981795;28;20061;-70
2023/04/02 15:15:23;;;;;;;7.35;1.30;;;;;;;;;;4954710;28;20058;-70
2023/04/02 15:20:38;;;;;;;2.53;1.00;;;;;;;;;;5038663;27;20420;-73
2023/04/02 15:23:10;;;;;;;2.42;1.10;;;;;;;;;;5011171;28;20057;-72
2023/04/02 15:25:43;;;;;;;1.67;0.77;;;;;;;;;;5004666;28;20050;-72
2023/04/02 15:28:18;;;;;;;0.95;0.80;;;;;;;;;;5003171;28;20056;-71
2023/04/02 15:30:51;;;;;;;3.60;1.10;;;;;;;;;;5025852;28;20060;-72
2023/04/02 15:33:31;;;;;;;3.45;1.02;;;;;;;;;;5029877;28;20060;-70
2023/04/02 15:36:04;;;;;;;2.67;0.90;;;;;;;;;;5024867;28;20078;-73
2023/04/02 15:38:33;;;;;;;2.63;1.10;;;;;;;;;;5010981;28;20052;-71
2023/04/02 15:41:03;;;;;;;3.70;1.08;;;;;;;;;;5008007;28;20049;-71
2023/04/02 15:43:31;;;;;;;2.67;1.00;;;;;;;;;;5015901;28;20060;-70
2023/04/02 15:46:16;;;;;;;3.75;1.10;;;;;;;;;;5035826;28;20081;-69
2023/04/02 15:49:01;;;;;;;2.80;1.10;;;;;;;;;;5011004;28;20143;-69
2023/04/02 15:51:40;;;;;;;3.55;1.05;;;;;;;;;;5026198;28;20135;-73
2023/04/02 15:54:15;;;;;;;2.15;1.02;;;;;;;;;;4980947;28;20070;-72
2023/04/02 16:04:36;;;;;;;1.77;0.80;;;;;;;;;;4995503;27;20490;-70
2023/04/02 16:07:15;;;;;;;3.47;1.00;;;;;;;;;;4977058;28;20185;-74
2023/04/02 16:09:47;;;;;;;3.85;1.10;;;;;;;;;;4985121;28;20054;-73
2023/04/02 16:12:15;;;;;;;5.55;1.30;;;;;;;;;;4995235;28;20050;-72